X  Schlie├čen METAR Luftfahrt Wetterdaten     EDVE Braunschweig-Wolfsburg Airport
Temperatur
4°C Temperatur
2°C Taupunkt
87% Feuchtigkeit



Wind
5 KM/S
3 MPS
1 M/S
3 KTS



100°
Ost
Aktuelle Wetterlage

Klar Klar
Luftdruck 1021.92 (hPa) - 30.18 (inHg)
Sichtweite 6.2 (Meile) - 10 (Km)
Flughafen
Flughafen Code EDVE

Position : Braunschweig-Wolfsburg Airport
Entfernung: 35 (Km)

Metar:
EDVE 241850Z AUTO 10003KT 9999 // NCD 04/02 Q1022

Zeit: 24-10-2021 20:50 CEST